Time;durP1;ratioP1;P1;durP2;ratioP2;P2;SDS_P1;SDS_P2;PMS_P1;PMS_P2;Temp;Humidity;BMP_temperature;BMP_pressure;BME280_temperature;BME280_humidity;BME280_pressure;Samples;Min_cycle;Max_cycle;Signal;HPM_P1;HPM_P2
2022/12/25 00:00:39;;;;;;;;;9.00;8.00;;;;;13.90;100.00;101116.19;5060907;28;46525;-72
2022/12/25 00:03:05;;;;;;;;;8.67;8.67;;;;;13.92;100.00;101110.91;5057178;28;45313;-72
2022/12/25 00:05:30;;;;;;;;;8.00;6.00;;;;;13.89;100.00;101109.13;5057364;28;45472;-72
2022/12/25 00:07:55;;;;;;;;;7.00;7.00;;;;;13.91;100.00;101107.38;5057062;28;52870;-72
2022/12/25 00:10:21;;;;;;;;;5.33;5.33;;;;;13.93;100.00;101118.00;5056850;28;59247;-74
2022/12/25 00:12:46;;;;;;;;;9.00;7.00;;;;;13.88;100.00;101100.28;5073756;27;45434;-73
2022/12/25 00:15:11;;;;;;;;;9.33;8.00;;;;;13.94;100.00;101099.41;5092831;27;45434;-72
2022/12/25 00:17:37;;;;;;;;;28.00;23.00;;;;;13.95;100.00;101095.84;5076134;28;50134;-72
2022/12/25 00:20:02;;;;;;;;;14.67;10.33;;;;;13.95;100.00;101098.50;5064489;28;62324;-72
2022/12/25 00:22:28;;;;;;;;;14.00;9.00;;;;;13.93;100.00;101097.63;5057076;28;45366;-72
2022/12/25 00:24:54;;;;;;;;;11.33;9.33;;;;;13.93;100.00;101094.09;5072965;27;45579;-73
2022/12/25 00:27:19;;;;;;;;;7.33;7.33;;;;;13.98;100.00;101102.97;5057424;28;45397;-73
2022/12/25 00:29:45;;;;;;;;;8.33;8.33;;;;;13.98;100.00;101102.97;5055593;28;45619;-73
2022/12/25 00:32:10;;;;;;;;;8.00;8.00;;;;;13.97;100.00;101104.72;5057094;28;46146;-72
2022/12/25 00:34:35;;;;;;;;;7.00;6.00;;;;;13.94;100.00;101087.91;5056349;28;56254;-72
2022/12/25 00:37:01;;;;;;;;;7.67;6.67;;;;;13.96;100.00;101089.69;5056146;28;52427;-72
2022/12/25 00:39:26;;;;;;;;;5.67;5.67;;;;;13.97;100.00;101099.41;5067678;28;62398;-72
2022/12/25 00:44:35;;;;;;;;;7.33;6.00;;;;;13.95;100.00;101087.91;5056786;28;45389;-73
2022/12/25 00:47:01;;;;;;;;;6.00;5.00;;;;;13.96;100.00;101094.13;5056008;28;53741;-72
2022/12/25 00:49:27;;;;;;;;;6.00;5.00;;;;;13.98;100.00;101095.00;5056564;28;46558;-72
2022/12/25 00:51:53;;;;;;;;;6.00;5.00;;;;;14.00;100.00;101091.44;5056209;28;61386;-72
2022/12/25 00:54:19;;;;;;;;;5.67;4.33;;;;;14.01;100.00;101079.97;5055627;28;49247;-72
2022/12/25 00:56:45;;;;;;;;;6.00;6.00;;;;;14.02;100.00;101078.19;5057405;28;45540;-73
2022/12/25 00:59:11;;;;;;;;;6.00;4.00;;;;;14.02;100.00;101078.19;5071428;28;47413;-73
2022/12/25 01:01:37;;;;;;;;;4.67;3.67;;;;;13.98;100.00;101071.97;5076211;28;45530;-70
2022/12/25 01:04:03;;;;;;;;;7.33;3.00;;;;;14.00;100.00;101064.88;5076328;28;45349;-72
2022/12/25 01:06:28;;;;;;;;;6.33;2.67;;;;;13.99;100.00;101056.94;5075752;28;45357;-73
2022/12/25 01:11:37;;;;;;;;;3.33;3.33;;;;;13.99;100.00;101064.91;5074839;28;45479;-73
2022/12/25 01:14:03;;;;;;;;;3.33;3.00;;;;;14.00;100.00;101075.50;5055241;28;55547;-72
2022/12/25 01:16:29;;;;;;;;;0.33;0.33;;;;;13.98;100.00;101077.28;5074835;28;45481;-75
2022/12/25 01:18:54;;;;;;;;;3.00;2.00;;;;;14.04;100.00;101081.72;5056408;28;46333;-72
2022/12/25 01:21:20;;;;;;;;;2.00;2.00;;;;;14.01;100.00;101069.34;5056399;28;45406;-73
2022/12/25 01:23:46;;;;;;;;;4.00;3.00;;;;;14.03;100.00;101074.66;5056412;28;45363;-72
2022/12/25 01:26:12;;;;;;;;;4.00;2.00;;;;;14.03;100.00;101075.53;5056590;28;45318;-72
2022/12/25 01:28:39;;;;;;;;;3.00;3.00;;;;;14.03;100.00;101078.19;5056089;28;45392;-71
2022/12/25 01:31:08;;;;;;;;;2.33;2.33;;;;;14.01;100.00;101087.94;5055976;28;45166;-72
2022/12/25 01:33:34;;;;;;;;;4.00;2.00;;;;;14.02;100.00;101089.69;5056232;28;45418;-72
2022/12/25 01:35:59;;;;;;;;;3.00;2.00;;;;;14.00;100.00;101085.25;5056039;28;55444;-72
2022/12/25 01:38:24;;;;;;;;;2.00;2.00;;;;;14.02;100.00;101100.31;5063306;28;45775;-72
2022/12/25 01:40:50;;;;;;;;;3.00;3.00;;;;;13.99;100.00;101089.69;5057416;28;53399;-73
2022/12/25 01:43:23;;;;;;;;;3.00;3.00;;;;;14.03;100.00;101087.91;5053313;28;54029;-72
2022/12/25 01:45:51;;;;;;;;;3.00;2.00;;;;;14.02;100.00;101089.69;5059868;28;45259;-71
2022/12/25 01:48:20;;;;;;;;;2.33;2.33;;;;;14.06;100.00;101103.84;5067228;28;45702;-75
2022/12/25 01:50:50;;;;;;;;;2.00;2.00;;;;;14.04;100.00;101090.56;5095085;27;45377;-73
2022/12/25 01:53:15;;;;;;;;;2.00;2.00;;;;;14.02;100.00;101075.53;5078778;28;45302;-75
2022/12/25 01:55:42;;;;;;;;;2.00;2.00;;;;;13.96;100.00;101065.78;5094237;27;55509;-73
2022/12/25 01:58:08;;;;;;;;;3.00;3.00;;;;;14.00;100.00;101080.81;5061374;28;62876;-72
2022/12/25 02:00:33;;;;;;;;;4.67;2.00;;;;;14.04;100.00;101087.91;5074717;27;45256;-75
2022/12/25 02:02:59;;;;;;;;;5.67;2.00;;;;;14.02;100.00;101080.84;5058847;28;58560;-73
2022/12/25 02:05:30;;;;;;;;;3.00;3.00;;;;;14.06;100.00;101078.19;5059138;28;45391;-72
2022/12/25 02:07:58;;;;;;;;;6.33;2.67;;;;;14.07;100.00;101071.13;5059014;28;45714;-71
2022/12/25 02:10:23;;;;;;;;;3.00;3.00;;;;;14.07;100.00;101074.66;5074767;27;45231;-72
2022/12/25 02:12:49;;;;;;;;;3.00;3.00;;;;;14.07;100.00;101066.69;5056820;28;45769;-72
2022/12/25 02:15:17;;;;;;;;;1.00;1.00;;;;;14.05;100.00;101064.91;5055331;28;45177;-72
2022/12/25 02:17:45;;;;;;;;;2.00;2.00;;;;;14.07;100.00;101074.66;5076090;28;45527;-72
2022/12/25 02:20:27;;;;;;;;;3.00;1.33;;;;;14.08;100.00;101062.25;5078725;28;45339;-71
2022/12/25 02:23:29;;;;;;;;;2.00;2.00;;;;;14.10;100.00;101039.22;5077141;28;45716;-73
2022/12/25 02:26:25;;;;;;;;;2.33;2.00;;;;;14.09;100.00;101040.13;5078559;28;45378;-72
2022/12/25 02:29:11;;;;;;;;;4.00;3.00;;;;;14.09;100.00;101053.41;5078091;27;46710;-72
2022/12/25 02:31:45;;;;;;;;;3.00;2.00;;;;;14.09;100.00;101067.56;5078125;27;45427;-74
2022/12/25 02:34:18;;;;;;;;;5.00;2.00;;;;;14.07;100.00;101057.84;5078211;28;45192;-74
2022/12/25 02:37:22;;;;;;;;;5.67;3.00;;;;;14.11;100.00;101056.94;5062253;28;45600;-73
2022/12/25 02:40:05;;;;;;;;;5.33;3.67;;;;;14.11;100.00;101044.56;5032643;28;46751;-72
2022/12/25 03:08:06;;;;;;;;;1.33;1.00;;;;;14.14;100.00;101031.28;5058677;28;45557;-72
2022/12/25 03:13:21;;;;;;;;;3.67;2.33;;;;;14.11;100.00;101018.00;5064807;27;45810;-72
2022/12/25 03:18:32;;;;;;;;;2.00;2.00;;;;;14.13;100.00;101020.66;5078055;28;45212;-75
2022/12/25 03:31:10;;;;;;;;;4.00;3.00;;;;;14.05;100.00;100990.56;5077866;28;45422;-75
2022/12/25 03:32:25;;;;;;;;;1.00;1.00;;;;;14.11;100.00;101015.34;5067848;28;45552;-72
2022/12/25 03:35:22;;;;;;;;;1.00;1.00;;;;;14.10;100.00;101010.91;5054525;27;46485;-72
2022/12/25 04:36:10;;;;;;;;;9.67;9.00;;;;;14.14;100.00;100925.06;5058701;28;45260;-72
2022/12/25 04:38:37;;;;;;;;;11.67;7.33;;;;;14.15;100.00;100918.84;5076189;28;45558;-74
2022/12/25 04:41:03;;;;;;;;;13.00;12.67;;;;;14.12;100.00;100921.53;5063047;28;45723;-72
2022/12/25 04:43:28;;;;;;;;;12.67;9.33;;;;;14.15;100.00;100932.13;5060957;28;45331;-73
2022/12/25 04:45:54;;;;;;;;;13.67;11.00;;;;;14.16;100.00;100941.84;5076431;28;45698;-72
2022/12/25 04:48:20;;;;;;;;;13.00;11.00;;;;;14.18;100.00;100948.97;5069656;28;45603;-73
2022/12/25 04:50:45;;;;;;;;;12.33;9.33;;;;;14.16;100.00;100954.25;5075558;28;58016;-72
2022/12/25 04:53:11;;;;;;;;;16.33;11.00;;;;;14.18;100.00;100957.81;5076145;28;50639;-72
2022/12/25 04:55:36;;;;;;;;;18.00;14.00;;;;;14.17;100.00;100964.00;5075724;28;49549;-72
2022/12/25 04:58:01;;;;;;;;;14.33;11.00;;;;;14.13;100.00;100941.88;5075554;28;54180;-72
2022/12/25 05:00:27;;;;;;;;;14.00;13.00;;;;;14.14;100.00;100942.75;5075822;28;60529;-72
2022/12/25 05:02:52;;;;;;;;;15.67;12.67;;;;;14.07;100.00;100915.34;5075640;28;46871;-73
2022/12/25 05:05:17;;;;;;;;;13.67;9.00;;;;;14.18;100.00;100923.28;5063656;28;52675;-71
2022/12/25 05:07:43;;;;;;;;;14.67;14.00;;;;;14.19;100.00;100902.91;5071241;28;56008;-71
2022/12/25 05:10:08;;;;;;;;;16.00;11.33;;;;;14.14;100.00;100869.28;5075085;28;60753;-76
2022/12/25 05:12:34;;;;;;;;;18.00;12.33;;;;;14.14;100.00;100842.72;5065862;28;45429;-72
2022/12/25 05:14:59;;;;;;;;;16.67;14.00;;;;;14.15;100.00;100822.38;5076229;28;53550;-72
2022/12/25 05:17:24;;;;;;;;;16.33;13.00;;;;;14.19;100.00;100840.06;5079940;28;45321;-73
2022/12/25 05:19:50;;;;;;;;;14.33;13.33;;;;;14.20;100.00;100859.53;5079475;27;46403;-72
2022/12/25 05:22:15;;;;;;;;;13.67;11.67;;;;;14.19;100.00;100868.41;5061173;28;57833;-71
2022/12/25 05:24:40;;;;;;;;;17.00;13.67;;;;;14.15;100.00;100872.81;5059714;28;47322;-72
2022/12/25 05:27:06;;;;;;;;;10.67;10.67;;;;;14.16;100.00;100874.59;5060609;28;53309;-72
2022/12/25 05:29:31;;;;;;;;;13.00;13.00;;;;;14.14;100.00;100884.34;5058960;28;62089;-74
2022/12/25 05:31:56;;;;;;;;;17.00;13.00;;;;;14.18;100.00;100895.84;5059019;28;57634;-72
2022/12/25 05:34:22;;;;;;;;;14.67;13.00;;;;;14.18;100.00;100886.09;5059250;28;51130;-72
2022/12/25 05:36:47;;;;;;;;;18.00;16.33;;;;;14.19;100.00;100865.75;5172541;22;45122;-72
2022/12/25 05:39:13;;;;;;;;;13.00;12.33;;;;;14.19;100.00;100860.44;5038166;28;62135;-72
2022/12/25 05:41:38;;;;;;;;;15.67;13.33;;;;;14.18;100.00;100894.06;5038279;28;57572;-71
2022/12/25 05:44:03;;;;;;;;;14.33;14.00;;;;;14.20;100.00;100897.59;5039014;28;45697;-72
2022/12/25 05:46:29;;;;;;;;;13.67;10.33;;;;;14.18;100.00;100894.06;5038916;28;45386;-72
2022/12/25 05:48:54;;;;;;;;;13.00;12.00;;;;;14.14;100.00;100871.94;5038981;28;46796;-73
2022/12/25 05:51:19;;;;;;;;;11.33;11.33;;;;;14.16;100.00;100872.81;5038345;28;58392;-72
2022/12/25 05:53:45;;;;;;;;;13.33;12.67;;;;;14.19;100.00;100873.72;5039248;28;45433;-74
2022/12/25 05:56:10;;;;;;;;;15.00;13.33;;;;;14.15;100.00;100870.16;5038764;28;45477;-72
2022/12/25 05:58:37;;;;;;;;;11.00;9.67;;;;;14.17;100.00;100863.09;5038282;28;57473;-72
2022/12/25 06:01:03;;;;;;;;;15.33;14.00;;;;;14.15;100.00;100864.84;5038796;28;45367;-72
2022/12/25 06:03:28;;;;;;;;;13.67;11.67;;;;;14.15;100.00;100867.50;5038778;28;45355;-74
2022/12/25 06:05:54;;;;;;;;;12.67;9.00;;;;;14.14;100.00;100866.63;5038574;28;53038;-72
2022/12/25 06:08:19;;;;;;;;;15.33;9.67;;;;;14.15;100.00;100868.38;5038385;28;54696;-71
2022/12/25 06:10:45;;;;;;;;;15.67;10.67;;;;;14.20;100.00;100868.38;5038387;28;45372;-72
2022/12/25 06:13:10;;;;;;;;;13.00;12.67;;;;;14.21;100.00;100862.19;5038723;28;45217;-72
2022/12/25 06:15:39;;;;;;;;;8.33;8.33;;;;;14.18;100.00;100854.25;5038151;28;56545;-71
2022/12/25 06:18:05;;;;;;;;;15.33;11.33;;;;;14.18;100.00;100845.38;5038932;28;46837;-72
2022/12/25 06:20:31;;;;;;;;;14.00;12.00;;;;;14.18;100.00;100848.94;5037527;28;45514;-74
2022/12/25 06:22:56;;;;;;;;;9.00;8.33;;;;;14.15;100.00;100841.84;5038418;28;45466;-74
2022/12/25 06:25:22;;;;;;;;;14.67;11.33;;;;;14.18;100.00;100854.25;5038100;28;52078;-72
2022/12/25 06:27:47;;;;;;;;;14.00;10.33;;;;;14.17;100.00;100855.13;5036330;28;60558;-73
2022/12/25 06:30:13;;;;;;;;;11.33;9.67;;;;;14.16;100.00;100846.25;5037847;28;58229;-73
2022/12/25 06:32:38;;;;;;;;;10.00;9.00;;;;;14.21;100.00;100846.25;5038427;28;45494;-73
2022/12/25 06:35:04;;;;;;;;;12.00;12.00;;;;;14.21;100.00;100832.97;5037983;28;51725;-72
2022/12/25 06:37:30;;;;;;;;;10.67;8.00;;;;;14.21;100.00;100821.47;5038149;28;46330;-73
2022/12/25 06:39:55;;;;;;;;;13.33;10.00;;;;;14.20;100.00;100822.34;5038068;28;45457;-72
2022/12/25 06:42:20;;;;;;;;;11.00;10.33;;;;;14.19;100.00;100816.16;5038055;28;45411;-72
2022/12/25 06:44:46;;;;;;;;;12.00;10.67;;;;;14.21;100.00;100803.75;5036550;28;52197;-73
2022/12/25 06:47:12;;;;;;;;;13.33;10.33;;;;;14.22;100.00;100799.31;5038021;28;45623;-72
2022/12/25 06:49:37;;;;;;;;;12.67;9.33;;;;;14.20;100.00;100811.72;5038234;28;45502;-72
2022/12/25 06:52:02;;;;;;;;;13.00;10.00;;;;;14.18;100.00;100814.41;5037780;28;53273;-71
2022/12/25 06:54:28;;;;;;;;;16.00;13.67;;;;;14.15;100.00;100820.59;5037684;28;45324;-75
2022/12/25 06:56:53;;;;;;;;;16.67;12.67;;;;;14.21;100.00;100848.91;5053887;28;46573;-73
2022/12/25 06:59:19;;;;;;;;;12.00;10.67;;;;;14.20;100.00;100846.25;5037459;28;50402;-72
2022/12/25 07:01:50;;;;;;;;;12.00;12.00;;;;;14.21;100.00;100851.56;5040092;28;45785;-75
2022/12/25 07:04:30;;;;;;;;;18.00;14.33;;;;;14.21;100.00;100853.31;5054720;28;45186;-72
2022/12/25 07:06:59;;;;;;;;;13.33;12.00;;;;;14.20;100.00;100862.19;5031806;28;46729;-74
2022/12/25 07:09:25;;;;;;;;;12.33;11.33;;;;;14.20;100.00;100857.75;5037884;28;45280;-73
2022/12/25 07:11:50;;;;;;;;;12.33;11.00;;;;;14.16;100.00;100840.06;5037650;28;45340;-72
2022/12/25 07:14:22;;;;;;;;;12.67;12.67;;;;;14.18;100.00;100843.63;5037790;28;45549;-72
2022/12/25 07:16:48;;;;;;;;;15.00;11.67;;;;;14.21;100.00;100821.47;5037297;28;46565;-71
2022/12/25 07:19:14;;;;;;;;;16.33;13.33;;;;;14.20;100.00;100820.56;5037328;28;55391;-75
2022/12/25 07:21:39;;;;;;;;;13.33;12.00;;;;;14.19;100.00;100802.88;5037823;28;45451;-72
2022/12/25 07:24:05;;;;;;;;;12.00;12.00;;;;;14.16;100.00;100790.50;5037515;28;45359;-74
2022/12/25 07:26:30;;;;;;;;;16.00;13.00;;;;;14.15;100.00;100777.22;5037349;28;46109;-72
2022/12/25 07:28:56;;;;;;;;;18.00;13.00;;;;;14.19;100.00;100789.59;5036873;28;56881;-73
2022/12/25 07:31:21;;;;;;;;;15.00;11.00;;;;;14.18;100.00;100777.22;5036826;28;47955;-71
2022/12/25 07:33:47;;;;;;;;;15.00;11.33;;;;;14.18;100.00;100771.91;5037349;28;45422;-72
2022/12/25 07:36:13;;;;;;;;;11.67;9.00;;;;;14.13;100.00;100756.00;5036362;28;63594;-72
2022/12/25 07:38:42;;;;;;;;;12.00;9.33;;;;;14.15;100.00;100753.31;5052310;28;45509;-72
2022/12/25 07:41:11;;;;;;;;;8.33;8.33;;;;;14.13;100.00;100741.84;5037567;28;45477;-72
2022/12/25 07:43:37;;;;;;;;;15.00;12.00;;;;;14.14;100.00;100736.53;5037257;28;45407;-73
2022/12/25 07:46:02;;;;;;;;;11.67;11.67;;;;;14.07;100.00;100725.94;5036867;28;46244;-72
2022/12/25 07:48:28;;;;;;;;;14.33;12.33;;;;;14.07;100.00;100745.41;5037229;28;45379;-72
2022/12/25 07:51:01;;;;;;;;;11.00;11.00;;;;;14.07;100.00;100747.19;5036418;28;48973;-72
2022/12/25 07:53:27;;;;;;;;;12.00;10.67;;;;;14.10;100.00;100769.28;5037362;28;45393;-74
2022/12/25 07:56:01;;;;;;;;;9.33;8.67;;;;;14.10;100.00;100787.88;5036228;28;46175;-72
2022/12/25 07:58:28;;;;;;;;;12.00;10.33;;;;;14.10;100.00;100795.81;5036991;28;45450;-72
2022/12/25 08:00:53;;;;;;;;;10.00;9.00;;;;;14.12;100.00;100791.41;5037034;28;45292;-72
2022/12/25 08:03:19;;;;;;;;;11.00;8.00;;;;;14.11;100.00;100789.66;5037333;28;45496;-75
2022/12/25 08:05:44;;;;;;;;;14.33;11.00;;;;;14.11;100.00;100794.97;5036884;28;46266;-72
2022/12/25 08:08:10;;;;;;;;;16.00;12.00;;;;;14.12;100.00;100810.00;5035658;28;45410;-74
2022/12/25 08:10:35;;;;;;;;;9.67;8.33;;;;;14.10;100.00;100803.78;5036379;28;58223;-72
2022/12/25 08:13:01;;;;;;;;;12.00;8.33;;;;;14.10;100.00;100797.59;5036433;28;45494;-74
2022/12/25 08:15:26;;;;;;;;;7.33;7.33;;;;;14.13;100.00;100808.22;5036696;28;46275;-72
2022/12/25 08:17:52;;;;;;;;;9.67;7.00;;;;;14.13;100.00;100797.59;5036252;28;59147;-72
2022/12/25 08:20:17;;;;;;;;;8.33;6.00;;;;;14.11;100.00;100792.31;5036046;28;57927;-72
2022/12/25 08:22:42;;;;;;;;;7.00;6.00;;;;;14.10;100.00;100785.22;5036556;28;54542;-72
2022/12/25 08:25:08;;;;;;;;;6.33;6.00;;;;;14.10;100.00;100786.97;5036001;28;64116;-72
2022/12/25 08:27:33;;;;;;;;;8.00;8.00;;;;;14.05;100.00;100778.16;5036250;28;45229;-72
2022/12/25 08:29:59;;;;;;;;;8.33;7.00;;;;;14.06;100.00;100782.56;5036041;28;57910;-72
2022/12/25 08:32:24;;;;;;;;;9.00;7.00;;;;;14.07;100.00;100774.63;5036281;28;51557;-72
2022/12/25 08:34:49;;;;;;;;;11.67;8.67;;;;;14.11;100.00;100767.50;5034611;28;61024;-71
2022/12/25 08:37:15;;;;;;;;;15.33;9.33;;;;;14.10;100.00;100771.06;5035873;28;53885;-72
2022/12/25 08:39:40;;;;;;;;;8.33;7.00;;;;;14.16;100.00;100781.66;5036485;28;45142;-71
2022/12/25 08:42:05;;;;;;;;;12.00;8.00;;;;;14.16;100.00;100777.22;5036090;28;52591;-72
2022/12/25 08:44:31;;;;;;;;;7.00;7.00;;;;;14.13;100.00;100760.44;5034484;28;59203;-72
2022/12/25 08:46:56;;;;;;;;;8.67;8.67;;;;;14.18;100.00;100766.59;5036000;28;57662;-72
2022/12/25 08:49:22;;;;;;;;;9.33;7.00;;;;;14.19;100.00;100763.06;5034979;28;52085;-73
2022/12/25 08:51:47;;;;;;;;;10.67;8.00;;;;;14.19;100.00;100767.47;5036317;28;45381;-73
2022/12/25 08:54:12;;;;;;;;;8.00;7.00;;;;;14.19;100.00;100764.81;5035603;28;55028;-72
2022/12/25 08:56:38;;;;;;;;;6.00;6.00;;;;;14.14;100.00;100779.00;5035855;28;45827;-72
2022/12/25 08:59:03;;;;;;;;;8.67;6.67;;;;;14.17;100.00;100772.81;5036382;28;45517;-73
2022/12/25 09:01:28;;;;;;;;;8.33;8.33;;;;;14.16;100.00;100769.25;5035444;28;51935;-72
2022/12/25 09:03:54;;;;;;;;;10.00;10.00;;;;;14.07;100.00;100761.34;5035536;28;58293;-72
2022/12/25 09:06:19;;;;;;;;;9.67;7.33;;;;;14.13;100.00;100765.75;5036258;28;45454;-72
2022/12/25 09:08:44;;;;;;;;;11.33;11.00;;;;;14.09;100.00;100756.03;5035902;28;45322;-72
2022/12/25 09:11:12;;;;;;;;;11.00;6.00;;;;;14.11;100.00;100773.72;5035810;28;45581;-72
2022/12/25 09:13:37;;;;;;;;;9.00;8.00;;;;;14.12;100.00;100786.09;5039575;28;47886;-72
2022/12/25 09:16:08;;;;;;;;;5.00;5.00;;;;;14.10;100.00;100782.56;5036187;28;45394;-71
2022/12/25 09:18:33;;;;;;;;;7.33;6.33;;;;;14.07;100.00;100771.97;5035289;28;45311;-74
2022/12/25 09:21:04;;;;;;;;;8.33;7.00;;;;;14.08;100.00;100772.84;5035758;28;45917;-72
2022/12/25 09:23:31;;;;;;;;;8.00;7.00;;;;;14.07;100.00;100766.66;5035558;28;46601;-72
2022/12/25 09:26:00;;;;;;;;;10.33;7.33;;;;;14.11;100.00;100792.31;5035633;28;45520;-72
2022/12/25 09:28:26;;;;;;;;;7.67;6.33;;;;;14.10;100.00;100784.31;5051476;28;45397;-72
2022/12/25 09:30:52;;;;;;;;;6.67;6.00;;;;;14.09;100.00;100779.91;5035890;28;45470;-73
2022/12/25 09:33:19;;;;;;;;;9.33;7.33;;;;;14.10;100.00;100786.97;5034086;28;45814;-73
2022/12/25 09:35:55;;;;;;;;;9.00;8.33;;;;;14.08;100.00;100789.66;5050973;28;45462;-72
2022/12/25 09:38:20;;;;;;;;;10.00;6.33;;;;;14.09;100.00;100791.41;5035372;28;45237;-73
2022/12/25 09:40:46;;;;;;;;;7.00;6.67;;;;;14.11;100.00;100789.66;5035221;28;56682;-72
2022/12/25 09:43:15;;;;;;;;;9.33;8.00;;;;;14.09;100.00;100779.91;5034900;28;60731;-73
2022/12/25 09:45:42;;;;;;;;;8.00;7.00;;;;;14.10;100.00;100790.53;5051028;28;45327;-73
2022/12/25 09:48:13;;;;;;;;;5.00;4.33;;;;;14.13;100.00;100776.38;5035619;28;45277;-72
2022/12/25 09:50:49;;;;;;;;;7.67;6.00;;;;;14.10;100.00;100782.56;5034450;28;45297;-72
2022/12/25 09:53:18;;;;;;;;;10.00;6.00;;;;;14.11;100.00;100789.66;5033433;28;46729;-72
2022/12/25 09:56:05;;;;;;;;;11.33;6.67;;;;;14.13;100.00;100792.28;5034313;28;45419;-72
2022/12/25 09:58:32;;;;;;;;;8.33;7.33;;;;;14.14;100.00;100786.97;5045450;28;45617;-72
2022/12/25 10:01:27;;;;;;;;;6.67;5.00;;;;;14.16;100.00;100781.66;5036001;28;45415;-72
2022/12/25 10:03:56;;;;;;;;;7.00;5.67;;;;;14.18;100.00;100784.31;5034515;28;46486;-72
2022/12/25 10:06:33;;;;;;;;;11.33;7.00;;;;;14.19;100.00;100778.97;5038788;28;45401;-72
2022/12/25 10:09:11;;;;;;;;;7.67;6.00;;;;;14.24;100.00;100773.66;5038706;28;45541;-72
2022/12/25 10:12:04;;;;;;;;;8.33;7.00;;;;;14.26;100.00;100780.72;5038286;28;45517;-74
2022/12/25 10:14:55;;;;;;;;;6.67;5.00;;;;;14.30;100.00;100781.59;5038425;28;46459;-72
2022/12/25 10:17:33;;;;;;;;;7.00;5.00;;;;;14.29;100.00;100766.56;5037445;28;45641;-74
2022/12/25 10:20:29;;;;;;;;;6.67;5.00;;;;;14.34;100.00;100770.06;5038540;28;45371;-73
2022/12/25 10:22:58;;;;;;;;;10.00;8.00;;;;;14.35;100.00;100777.13;5038355;28;45468;-72
2022/12/25 10:25:24;;;;;;;;;6.00;6.00;;;;;14.33;100.00;100779.81;5053186;28;58451;-71
2022/12/25 10:27:56;;;;;;;;;5.67;5.67;;;;;14.34;100.00;100770.06;5038860;28;45529;-72
2022/12/25 10:30:24;;;;;;;;;4.67;4.67;;;;;14.32;100.00;100763.84;5053814;28;45429;-73
2022/12/25 10:32:50;;;;;;;;;7.00;5.00;;;;;14.33;100.00;100757.69;5054121;28;45561;-72
2022/12/25 10:35:19;;;;;;;;;7.33;6.00;;;;;14.38;100.00;100764.72;5038298;28;46425;-72
2022/12/25 10:37:50;;;;;;;;;6.33;5.33;;;;;14.36;100.00;100762.97;5037883;28;45398;-75
2022/12/25 10:40:21;;;;;;;;;5.67;5.33;;;;;14.41;100.00;100774.44;5053973;28;45439;-74
2022/12/25 10:42:51;;;;;;;;;7.33;6.00;;;;;14.40;100.00;100759.41;5038197;28;45349;-72
2022/12/25 10:45:17;;;;;;;;;8.67;6.33;;;;;14.46;100.00;100758.47;5053919;28;46340;-74
2022/12/25 10:47:42;;;;;;;;;6.67;5.67;;;;;14.53;100.00;100752.25;5036989;28;60312;-72
2022/12/25 10:50:18;;;;;;;;;6.67;4.67;;;;;14.60;100.00;100762.84;5053548;28;45664;-72
2022/12/25 10:53:04;;;;;;;;;6.00;6.00;;;;;14.61;100.00;100750.44;5053588;28;45474;-72
2022/12/25 10:55:30;;;;;;;;;7.00;5.33;;;;;14.63;100.00;100749.53;5037624;28;45624;-72
2022/12/25 10:57:56;;;;;;;;;6.00;6.00;;;;;14.65;100.00;100755.72;5053362;28;45261;-73
2022/12/25 11:00:27;;;;;;;;;6.00;5.67;;;;;14.66;100.00;100746.88;5038126;28;45322;-74
2022/12/25 11:02:53;;;;;;;;;8.33;5.33;;;;;14.65;100.00;100758.41;5038323;28;45225;-74
2022/12/25 11:05:30;;;;;;;;;5.00;5.00;;;;;14.66;100.00;100768.13;5037585;28;46128;-73
2022/12/25 11:07:57;;;;;;;;;8.00;5.00;;;;;14.65;100.00;100773.47;5037693;28;45354;-73
2022/12/25 11:10:27;;;;;;;;;3.00;3.00;;;;;14.65;100.00;100752.19;5037638;28;45423;-72
2022/12/25 11:12:53;;;;;;;;;5.33;5.00;;;;;14.67;100.00;100747.75;5037252;28;45356;-73
2022/12/25 11:15:33;;;;;;;;;5.00;4.00;;;;;14.68;100.00;100750.38;5036115;28;46399;-72
2022/12/25 11:17:58;;;;;;;;;8.33;5.33;;;;;14.68;100.00;100742.41;5053175;28;45539;-72
2022/12/25 11:20:24;;;;;;;;;3.67;3.67;;;;;14.73;100.00;100754.78;5035536;28;55403;-73
2022/12/25 11:22:49;;;;;;;;;3.00;3.00;;;;;14.75;100.00;100763.63;5037785;28;45456;-72
2022/12/25 11:25:26;;;;;;;;;6.00;4.00;;;;;14.74;100.00;100762.75;5037268;28;45584;-72
2022/12/25 11:27:59;;;;;;;;;8.33;6.67;;;;;14.74;100.00;100783.13;5031114;28;45407;-72
2022/12/25 11:30:27;;;;;;;;;7.00;5.00;;;;;14.72;100.00;100788.47;5037102;28;45473;-72
2022/12/25 11:32:55;;;;;;;;;5.67;5.67;;;;;14.66;100.00;100785.84;5037660;28;45354;-75
2022/12/25 11:35:21;;;;;;;;;5.00;5.00;;;;;14.70;100.00;100789.34;5037626;28;46884;-72
2022/12/25 11:37:49;;;;;;;;;6.67;5.00;;;;;14.68;100.00;100784.06;5035622;28;45473;-74
2022/12/25 11:40:20;;;;;;;;;4.33;4.00;;;;;14.66;100.00;100783.19;5037437;28;45378;-72
2022/12/25 11:42:52;;;;;;;;;6.33;4.67;;;;;14.67;100.00;100779.63;5052558;28;45634;-73
2022/12/25 11:45:23;;;;;;;;;3.33;3.33;;;;;14.68;100.00;100768.97;5052617;28;45966;-73
2022/12/25 11:47:58;;;;;;;;;4.00;4.00;;;;;14.71;100.00;100765.44;5052437;28;45521;-72
2022/12/25 11:50:33;;;;;;;;;5.00;5.00;;;;;14.73;100.00;100768.06;5052998;28;45353;-72
2022/12/25 11:53:10;;;;;;;;;7.00;4.67;;;;;14.73;100.00;100773.41;5036454;28;45343;-73
2022/12/25 11:55:42;;;;;;;;;7.33;4.67;;;;;14.74;100.00;100768.06;5052341;28;46015;-74
2022/12/25 11:58:14;;;;;;;;;3.00;3.00;;;;;14.77;100.00;100764.50;5052415;28;46053;-73
2022/12/25 12:00:42;;;;;;;;;5.00;5.00;;;;;14.78;100.00;100755.63;5036086;28;45571;-71
2022/12/25 12:03:13;;;;;;;;;3.00;3.00;;;;;14.80;100.00;100756.50;5035665;28;45569;-71
2022/12/25 12:05:44;;;;;;;;;4.33;4.33;;;;;14.77;100.00;100748.56;5036791;28;45427;-74
2022/12/25 12:08:10;;;;;;;;;4.67;4.00;;;;;14.78;100.00;100740.56;5052121;28;45537;-72
2022/12/25 12:10:51;;;;;;;;;6.00;4.67;;;;;14.81;100.00;100729.94;5036878;28;45410;-72
2022/12/25 12:13:26;;;;;;;;;5.33;5.00;;;;;14.84;100.00;100739.63;5035350;28;45483;-73
2022/12/25 12:15:52;;;;;;;;;7.00;5.33;;;;;14.81;100.00;100751.19;5036526;28;46474;-73
2022/12/25 12:18:24;;;;;;;;;5.33;5.33;;;;;14.87;100.00;100747.59;5036340;28;45473;-72
2022/12/25 12:21:15;;;;;;;;;6.67;5.33;;;;;14.89;100.00;100727.19;5036771;28;45282;-73
2022/12/25 12:23:55;;;;;;;;;5.67;3.00;;;;;14.94;100.00;100720.94;5036806;28;45418;-72
2022/12/25 12:26:25;;;;;;;;;2.67;2.67;;;;;15.02;100.00;100735.94;5035636;28;45827;-73
2022/12/25 12:28:53;;;;;;;;;7.00;3.00;;;;;15.05;100.00;100711.97;5036503;28;45530;-73
2022/12/25 12:31:19;;;;;;;;;4.33;4.00;;;;;15.08;100.00;100717.28;5036472;28;45332;-73
2022/12/25 12:33:50;;;;;;;;;4.33;3.33;;;;;15.09;100.00;100703.09;5036442;28;45375;-73
2022/12/25 12:36:18;;;;;;;;;4.00;4.00;;;;;15.10;100.00;100723.47;5034949;28;45743;-72
2022/12/25 12:38:43;;;;;;;;;5.00;5.00;;;;;15.07;100.00;100732.34;5051580;28;45395;-72
2022/12/25 12:41:12;;;;;;;;;7.67;6.67;;;;;15.06;100.00;100750.97;5052136;28;45221;-73
2022/12/25 12:43:59;;;;;;;;;3.00;3.00;;;;;15.07;100.00;100734.13;5051663;28;45568;-72
2022/12/25 12:46:26;;;;;;;;;7.00;4.00;;;;;15.06;100.00;100735.03;5051860;28;46898;-73
2022/12/25 12:48:54;;;;;;;;;8.00;4.00;;;;;15.09;100.00;100722.59;5034873;28;45187;-75
2022/12/25 12:51:34;;;;;;;;;5.33;5.33;;;;;15.14;100.00;100706.59;5051843;28;45354;-73
2022/12/25 12:54:24;;;;;;;;;4.00;4.00;;;;;15.24;100.00;100702.06;5036495;28;45819;-73
2022/12/25 12:56:59;;;;;;;;;6.00;4.33;;;;;15.30;100.00;100718.84;5027809;28;46596;-74
2022/12/25 12:59:26;;;;;;;;;6.00;4.33;;;;;15.37;100.00;100714.31;5051566;28;45504;-73
2022/12/25 13:02:12;;;;;;;;;5.67;3.67;;;;;15.49;100.00;100732.81;5036109;28;45391;-73